sensor_id;sensor_type;location;lat;lon;timestamp;P1;durP1;ratioP1;P2;durP2;ratioP2
6209;SDS011;3138;52.550;13.148;2023-09-07T00:01:29;13.40;;;9.37;;
6209;SDS011;3138;52.550;13.148;2023-09-07T00:03:56;17.53;;;8.70;;
6209;SDS011;3138;52.550;13.148;2023-09-07T00:06:23;19.33;;;10.50;;
6209;SDS011;3138;52.550;13.148;2023-09-07T00:08:51;15.50;;;10.10;;
6209;SDS011;3138;52.550;13.148;2023-09-07T00:11:18;9.60;;;8.40;;
6209;SDS011;3138;52.550;13.148;2023-09-07T00:13:45;14.33;;;9.27;;
6209;SDS011;3138;52.550;13.148;2023-09-07T00:16:11;11.70;;;9.87;;
6209;SDS011;3138;52.550;13.148;2023-09-07T00:18:38;14.33;;;9.77;;
6209;SDS011;3138;52.550;13.148;2023-09-07T00:21:05;16.47;;;9.30;;
6209;SDS011;3138;52.550;13.148;2023-09-07T00:23:32;13.47;;;8.87;;
6209;SDS011;3138;52.550;13.148;2023-09-07T00:26:00;12.67;;;10.10;;
6209;SDS011;3138;52.550;13.148;2023-09-07T00:28:27;17.70;;;9.60;;
6209;SDS011;3138;52.550;13.148;2023-09-07T00:30:54;19.73;;;9.07;;
6209;SDS011;3138;52.550;13.148;2023-09-07T00:33:21;12.10;;;8.93;;
6209;SDS011;3138;52.550;13.148;2023-09-07T00:35:48;12.07;;;8.97;;
6209;SDS011;3138;52.550;13.148;2023-09-07T00:38:14;11.30;;;8.60;;
6209;SDS011;3138;52.550;13.148;2023-09-07T00:40:42;14.90;;;10.27;;
6209;SDS011;3138;52.550;13.148;2023-09-07T00:43:11;12.17;;;9.40;;
6209;SDS011;3138;52.550;13.148;2023-09-07T00:45:38;14.43;;;9.90;;
6209;SDS011;3138;52.550;13.148;2023-09-07T00:48:05;13.03;;;8.23;;
6209;SDS011;3138;52.550;13.148;2023-09-07T00:50:33;10.63;;;9.17;;
6209;SDS011;3138;52.550;13.148;2023-09-07T00:53:00;12.73;;;9.53;;
6209;SDS011;3138;52.550;13.148;2023-09-07T00:55:28;15.90;;;9.10;;
6209;SDS011;3138;52.550;13.148;2023-09-07T00:57:57;11.97;;;10.40;;
6209;SDS011;3138;52.550;13.148;2023-09-07T01:00:26;16.83;;;10.50;;
6209;SDS011;3138;52.550;13.148;2023-09-07T01:02:53;12.67;;;8.70;;
6209;SDS011;3138;52.550;13.148;2023-09-07T01:05:21;11.37;;;8.50;;
6209;SDS011;3138;52.550;13.148;2023-09-07T01:07:53;13.63;;;9.40;;
6209;SDS011;3138;52.550;13.148;2023-09-07T01:10:28;16.70;;;8.90;;
6209;SDS011;3138;52.550;13.148;2023-09-07T01:12:54;12.03;;;9.90;;
6209;SDS011;3138;52.550;13.148;2023-09-07T01:15:21;17.70;;;11.07;;
6209;SDS011;3138;52.550;13.148;2023-09-07T01:17:49;12.10;;;9.50;;
6209;SDS011;3138;52.550;13.148;2023-09-07T01:20:17;10.37;;;8.73;;
6209;SDS011;3138;52.550;13.148;2023-09-07T01:22:47;16.17;;;10.63;;
6209;SDS011;3138;52.550;13.148;2023-09-07T01:25:14;12.23;;;9.77;;
6209;SDS011;3138;52.550;13.148;2023-09-07T01:27:41;19.27;;;9.30;;
6209;SDS011;3138;52.550;13.148;2023-09-07T01:30:09;9.63;;;8.67;;
6209;SDS011;3138;52.550;13.148;2023-09-07T01:32:36;25.33;;;9.37;;
6209;SDS011;3138;52.550;13.148;2023-09-07T01:35:04;10.80;;;9.37;;
6209;SDS011;3138;52.550;13.148;2023-09-07T01:37:32;13.77;;;9.97;;
6209;SDS011;3138;52.550;13.148;2023-09-07T01:40:00;12.93;;;9.10;;
6209;SDS011;3138;52.550;13.148;2023-09-07T01:42:30;12.30;;;9.93;;
6209;SDS011;3138;52.550;13.148;2023-09-07T01:44:57;16.47;;;10.73;;
6209;SDS011;3138;52.550;13.148;2023-09-07T01:47:24;11.83;;;9.93;;
6209;SDS011;3138;52.550;13.148;2023-09-07T01:49:51;12.53;;;9.23;;
6209;SDS011;3138;52.550;13.148;2023-09-07T01:52:17;15.00;;;9.40;;
6209;SDS011;3138;52.550;13.148;2023-09-07T01:54:44;15.97;;;10.63;;
6209;SDS011;3138;52.550;13.148;2023-09-07T01:57:12;14.33;;;10.83;;
6209;SDS011;3138;52.550;13.148;2023-09-07T01:59:39;12.77;;;10.13;;
6209;SDS011;3138;52.550;13.148;2023-09-07T02:02:06;13.60;;;9.23;;
6209;SDS011;3138;52.550;13.148;2023-09-07T02:04:33;11.03;;;8.70;;
6209;SDS011;3138;52.550;13.148;2023-09-07T02:07:00;17.43;;;9.40;;
6209;SDS011;3138;52.550;13.148;2023-09-07T02:09:26;13.40;;;8.70;;
6209;SDS011;3138;52.550;13.148;2023-09-07T02:11:54;16.03;;;8.33;;
6209;SDS011;3138;52.550;13.148;2023-09-07T02:14:22;27.63;;;8.97;;
6209;SDS011;3138;52.550;13.148;2023-09-07T02:16:49;9.33;;;8.40;;
6209;SDS011;3138;52.550;13.148;2023-09-07T02:19:15;14.23;;;9.50;;
6209;SDS011;3138;52.550;13.148;2023-09-07T02:21:42;16.47;;;8.87;;
6209;SDS011;3138;52.550;13.148;2023-09-07T02:24:09;13.93;;;10.17;;
6209;SDS011;3138;52.550;13.148;2023-09-07T02:26:37;13.50;;;9.37;;
6209;SDS011;3138;52.550;13.148;2023-09-07T02:29:08;12.07;;;9.70;;
6209;SDS011;3138;52.550;13.148;2023-09-07T02:31:37;16.40;;;8.93;;
6209;SDS011;3138;52.550;13.148;2023-09-07T02:34:03;18.00;;;9.60;;
6209;SDS011;3138;52.550;13.148;2023-09-07T02:36:30;18.33;;;11.07;;
6209;SDS011;3138;52.550;13.148;2023-09-07T02:38:57;16.83;;;9.23;;
6209;SDS011;3138;52.550;13.148;2023-09-07T02:41:24;24.77;;;10.93;;
6209;SDS011;3138;52.550;13.148;2023-09-07T02:43:51;21.50;;;11.33;;
6209;SDS011;3138;52.550;13.148;2023-09-07T02:46:17;17.67;;;12.30;;
6209;SDS011;3138;52.550;13.148;2023-09-07T02:48:45;14.70;;;10.80;;
6209;SDS011;3138;52.550;13.148;2023-09-07T02:51:12;16.33;;;10.70;;
6209;SDS011;3138;52.550;13.148;2023-09-07T02:53:39;13.00;;;9.90;;
6209;SDS011;3138;52.550;13.148;2023-09-07T02:56:06;16.07;;;9.73;;
6209;SDS011;3138;52.550;13.148;2023-09-07T02:58:35;12.80;;;9.77;;
6209;SDS011;3138;52.550;13.148;2023-09-07T03:01:05;10.00;;;8.87;;
6209;SDS011;3138;52.550;13.148;2023-09-07T03:03:33;12.37;;;9.50;;
6209;SDS011;3138;52.550;13.148;2023-09-07T03:06:08;9.47;;;8.50;;
6209;SDS011;3138;52.550;13.148;2023-09-07T03:08:35;11.27;;;9.67;;
6209;SDS011;3138;52.550;13.148;2023-09-07T03:11:02;13.20;;;10.10;;
6209;SDS011;3138;52.550;13.148;2023-09-07T03:13:30;13.33;;;8.90;;
6209;SDS011;3138;52.550;13.148;2023-09-07T03:15:57;20.50;;;9.10;;
6209;SDS011;3138;52.550;13.148;2023-09-07T03:18:24;10.63;;;8.83;;
6209;SDS011;3138;52.550;13.148;2023-09-07T03:20:53;11.80;;;10.00;;
6209;SDS011;3138;52.550;13.148;2023-09-07T03:23:22;14.60;;;9.60;;
6209;SDS011;3138;52.550;13.148;2023-09-07T03:25:50;11.67;;;10.27;;
6209;SDS011;3138;52.550;13.148;2023-09-07T03:28:16;17.63;;;10.10;;
6209;SDS011;3138;52.550;13.148;2023-09-07T03:30:43;14.13;;;10.07;;
6209;SDS011;3138;52.550;13.148;2023-09-07T03:33:10;10.73;;;9.23;;
6209;SDS011;3138;52.550;13.148;2023-09-07T03:35:37;15.73;;;10.50;;
6209;SDS011;3138;52.550;13.148;2023-09-07T03:38:05;17.57;;;9.23;;
6209;SDS011;3138;52.550;13.148;2023-09-07T03:40:34;15.93;;;11.00;;
6209;SDS011;3138;52.550;13.148;2023-09-07T03:43:01;13.47;;;10.20;;
6209;SDS011;3138;52.550;13.148;2023-09-07T03:45:28;12.67;;;10.70;;
6209;SDS011;3138;52.550;13.148;2023-09-07T03:47:55;10.77;;;8.87;;
6209;SDS011;3138;52.550;13.148;2023-09-07T03:50:22;13.90;;;10.10;;
6209;SDS011;3138;52.550;13.148;2023-09-07T03:52:49;9.83;;;8.40;;
6209;SDS011;3138;52.550;13.148;2023-09-07T03:55:16;16.00;;;9.73;;
6209;SDS011;3138;52.550;13.148;2023-09-07T03:57:44;11.67;;;8.67;;
6209;SDS011;3138;52.550;13.148;2023-09-07T04:00:11;12.87;;;9.43;;
6209;SDS011;3138;52.550;13.148;2023-09-07T04:02:40;13.93;;;10.37;;
6209;SDS011;3138;52.550;13.148;2023-09-07T04:05:07;12.67;;;10.30;;
6209;SDS011;3138;52.550;13.148;2023-09-07T04:07:35;18.10;;;10.03;;
6209;SDS011;3138;52.550;13.148;2023-09-07T04:10:02;11.40;;;9.57;;
6209;SDS011;3138;52.550;13.148;2023-09-07T04:12:30;20.00;;;11.23;;
6209;SDS011;3138;52.550;13.148;2023-09-07T04:14:59;12.27;;;10.80;;
6209;SDS011;3138;52.550;13.148;2023-09-07T04:17:27;15.33;;;10.37;;
6209;SDS011;3138;52.550;13.148;2023-09-07T04:19:53;16.23;;;11.47;;
6209;SDS011;3138;52.550;13.148;2023-09-07T04:22:20;26.77;;;14.43;;
6209;SDS011;3138;52.550;13.148;2023-09-07T04:24:47;15.50;;;12.93;;
6209;SDS011;3138;52.550;13.148;2023-09-07T04:27:14;15.10;;;10.70;;
6209;SDS011;3138;52.550;13.148;2023-09-07T04:29:41;14.03;;;11.63;;
6209;SDS011;3138;52.550;13.148;2023-09-07T04:32:09;14.03;;;9.77;;
6209;SDS011;3138;52.550;13.148;2023-09-07T04:34:36;13.60;;;10.03;;
6209;SDS011;3138;52.550;13.148;2023-09-07T04:37:03;10.60;;;9.50;;
6209;SDS011;3138;52.550;13.148;2023-09-07T04:39:30;11.30;;;9.37;;
6209;SDS011;3138;52.550;13.148;2023-09-07T04:41:57;12.00;;;9.97;;
6209;SDS011;3138;52.550;13.148;2023-09-07T04:44:25;13.37;;;9.57;;
6209;SDS011;3138;52.550;13.148;2023-09-07T04:46:54;12.90;;;10.50;;
6209;SDS011;3138;52.550;13.148;2023-09-07T04:49:22;14.20;;;10.10;;
6209;SDS011;3138;52.550;13.148;2023-09-07T04:51:49;16.60;;;10.73;;
6209;SDS011;3138;52.550;13.148;2023-09-07T04:54:18;20.77;;;13.27;;
6209;SDS011;3138;52.550;13.148;2023-09-07T04:56:45;25.37;;;13.00;;
6209;SDS011;3138;52.550;13.148;2023-09-07T04:59:12;16.50;;;12.33;;
6209;SDS011;3138;52.550;13.148;2023-09-07T05:01:39;19.20;;;12.53;;
6209;SDS011;3138;52.550;13.148;2023-09-07T05:04:06;22.80;;;12.40;;
6209;SDS011;3138;52.550;13.148;2023-09-07T05:06:34;14.23;;;12.30;;
6209;SDS011;3138;52.550;13.148;2023-09-07T05:09:02;19.90;;;14.20;;
6209;SDS011;3138;52.550;13.148;2023-09-07T05:11:29;17.80;;;12.17;;
6209;SDS011;3138;52.550;13.148;2023-09-07T05:13:59;23.57;;;14.30;;
6209;SDS011;3138;52.550;13.148;2023-09-07T05:16:25;21.90;;;14.40;;
6209;SDS011;3138;52.550;13.148;2023-09-07T05:18:52;23.00;;;15.47;;
6209;SDS011;3138;52.550;13.148;2023-09-07T05:21:19;19.27;;;14.70;;
6209;SDS011;3138;52.550;13.148;2023-09-07T05:23:47;27.33;;;17.80;;
6209;SDS011;3138;52.550;13.148;2023-09-07T05:26:14;28.40;;;16.07;;
6209;SDS011;3138;52.550;13.148;2023-09-07T05:28:46;23.33;;;15.90;;
6209;SDS011;3138;52.550;13.148;2023-09-07T05:31:13;24.13;;;17.33;;
6209;SDS011;3138;52.550;13.148;2023-09-07T05:33:40;26.77;;;15.50;;
6209;SDS011;3138;52.550;13.148;2023-09-07T05:36:06;25.73;;;16.83;;
6209;SDS011;3138;52.550;13.148;2023-09-07T05:38:33;24.30;;;15.03;;
6209;SDS011;3138;52.550;13.148;2023-09-07T05:41:01;25.13;;;15.27;;
6209;SDS011;3138;52.550;13.148;2023-09-07T05:43:28;17.60;;;13.80;;
6209;SDS011;3138;52.550;13.148;2023-09-07T05:45:55;17.50;;;13.73;;
6209;SDS011;3138;52.550;13.148;2023-09-07T05:48:22;16.70;;;13.20;;
6209;SDS011;3138;52.550;13.148;2023-09-07T05:50:49;23.03;;;13.50;;
6209;SDS011;3138;52.550;13.148;2023-09-07T05:53:15;18.73;;;12.93;;
6209;SDS011;3138;52.550;13.148;2023-09-07T05:55:44;25.30;;;13.03;;
6209;SDS011;3138;52.550;13.148;2023-09-07T05:58:12;30.63;;;12.23;;
6209;SDS011;3138;52.550;13.148;2023-09-07T06:00:40;15.03;;;12.40;;
6209;SDS011;3138;52.550;13.148;2023-09-07T06:03:06;32.47;;;12.03;;
6209;SDS011;3138;52.550;13.148;2023-09-07T06:05:34;18.40;;;12.07;;
6209;SDS011;3138;52.550;13.148;2023-09-07T06:08:02;15.03;;;10.90;;
6209;SDS011;3138;52.550;13.148;2023-09-07T06:10:29;15.53;;;11.03;;
6209;SDS011;3138;52.550;13.148;2023-09-07T06:12:56;19.50;;;11.80;;
6209;SDS011;3138;52.550;13.148;2023-09-07T06:15:25;25.40;;;11.50;;
6209;SDS011;3138;52.550;13.148;2023-09-07T06:17:52;14.20;;;10.40;;
6209;SDS011;3138;52.550;13.148;2023-09-07T06:20:20;19.00;;;12.30;;
6209;SDS011;3138;52.550;13.148;2023-09-07T06:22:47;28.00;;;11.33;;
6209;SDS011;3138;52.550;13.148;2023-09-07T06:25:14;16.73;;;11.73;;
6209;SDS011;3138;52.550;13.148;2023-09-07T06:27:41;15.90;;;10.80;;
6209;SDS011;3138;52.550;13.148;2023-09-07T06:30:08;15.77;;;11.37;;
6209;SDS011;3138;52.550;13.148;2023-09-07T06:32:37;23.40;;;10.83;;
6209;SDS011;3138;52.550;13.148;2023-09-07T06:35:05;20.80;;;11.77;;
6209;SDS011;3138;52.550;13.148;2023-09-07T06:37:32;16.10;;;10.57;;
6209;SDS011;3138;52.550;13.148;2023-09-07T06:40:00;18.73;;;9.77;;
6209;SDS011;3138;52.550;13.148;2023-09-07T06:42:28;16.30;;;9.70;;
6209;SDS011;3138;52.550;13.148;2023-09-07T06:44:56;21.47;;;10.77;;
6209;SDS011;3138;52.550;13.148;2023-09-07T06:47:22;22.53;;;10.60;;
6209;SDS011;3138;52.550;13.148;2023-09-07T06:49:51;23.80;;;11.53;;
6209;SDS011;3138;52.550;13.148;2023-09-07T06:52:19;18.43;;;10.50;;
6209;SDS011;3138;52.550;13.148;2023-09-07T06:54:45;16.60;;;10.10;;
6209;SDS011;3138;52.550;13.148;2023-09-07T06:57:12;14.20;;;11.70;;
6209;SDS011;3138;52.550;13.148;2023-09-07T06:59:39;28.63;;;10.80;;
6209;SDS011;3138;52.550;13.148;2023-09-07T07:02:06;26.57;;;10.97;;
6209;SDS011;3138;52.550;13.148;2023-09-07T07:04:33;17.30;;;11.37;;
6209;SDS011;3138;52.550;13.148;2023-09-07T07:07:01;17.67;;;10.20;;
6209;SDS011;3138;52.550;13.148;2023-09-07T07:09:29;23.73;;;9.33;;
6209;SDS011;3138;52.550;13.148;2023-09-07T07:11:56;16.37;;;9.30;;
6209;SDS011;3138;52.550;13.148;2023-09-07T07:14:25;18.03;;;9.77;;
6209;SDS011;3138;52.550;13.148;2023-09-07T07:16:52;28.47;;;10.23;;
6209;SDS011;3138;52.550;13.148;2023-09-07T07:19:18;28.67;;;10.27;;
6209;SDS011;3138;52.550;13.148;2023-09-07T07:21:45;15.27;;;9.40;;
6209;SDS011;3138;52.550;13.148;2023-09-07T07:24:13;14.87;;;9.70;;
6209;SDS011;3138;52.550;13.148;2023-09-07T07:26:40;13.03;;;9.53;;
6209;SDS011;3138;52.550;13.148;2023-09-07T07:29:07;15.00;;;10.13;;
6209;SDS011;3138;52.550;13.148;2023-09-07T07:31:34;19.33;;;10.07;;
6209;SDS011;3138;52.550;13.148;2023-09-07T07:34:01;12.23;;;8.07;;
6209;SDS011;3138;52.550;13.148;2023-09-07T07:36:28;23.60;;;9.83;;
6209;SDS011;3138;52.550;13.148;2023-09-07T07:38:55;15.67;;;9.00;;
6209;SDS011;3138;52.550;13.148;2023-09-07T07:41:23;24.00;;;9.33;;
6209;SDS011;3138;52.550;13.148;2023-09-07T07:43:49;12.43;;;8.23;;
6209;SDS011;3138;52.550;13.148;2023-09-07T07:46:17;17.47;;;9.83;;
6209;SDS011;3138;52.550;13.148;2023-09-07T07:48:44;21.17;;;9.37;;
6209;SDS011;3138;52.550;13.148;2023-09-07T07:51:11;19.40;;;10.10;;
6209;SDS011;3138;52.550;13.148;2023-09-07T07:53:38;16.80;;;8.73;;
6209;SDS011;3138;52.550;13.148;2023-09-07T07:56:05;22.63;;;9.07;;
6209;SDS011;3138;52.550;13.148;2023-09-07T07:58:33;16.30;;;9.00;;
6209;SDS011;3138;52.550;13.148;2023-09-07T08:01:00;24.77;;;9.27;;
6209;SDS011;3138;52.550;13.148;2023-09-07T08:03:27;13.70;;;7.80;;
6209;SDS011;3138;52.550;13.148;2023-09-07T08:05:53;13.10;;;7.93;;
6209;SDS011;3138;52.550;13.148;2023-09-07T08:08:20;13.87;;;8.07;;
6209;SDS011;3138;52.550;13.148;2023-09-07T08:10:47;14.53;;;7.50;;
6209;SDS011;3138;52.550;13.148;2023-09-07T08:13:14;20.73;;;9.00;;
6209;SDS011;3138;52.550;13.148;2023-09-07T08:15:42;19.83;;;7.80;;
6209;SDS011;3138;52.550;13.148;2023-09-07T08:18:09;33.97;;;11.23;;
6209;SDS011;3138;52.550;13.148;2023-09-07T08:20:36;15.20;;;7.87;;
6209;SDS011;3138;52.550;13.148;2023-09-07T08:23:05;8.80;;;7.17;;
6209;SDS011;3138;52.550;13.148;2023-09-07T08:25:35;24.73;;;9.60;;
6209;SDS011;3138;52.550;13.148;2023-09-07T08:28:04;24.00;;;9.90;;
6209;SDS011;3138;52.550;13.148;2023-09-07T08:30:32;38.37;;;10.47;;
6209;SDS011;3138;52.550;13.148;2023-09-07T08:33:01;16.40;;;7.27;;
6209;SDS011;3138;52.550;13.148;2023-09-07T08:35:30;26.80;;;8.83;;
6209;SDS011;3138;52.550;13.148;2023-09-07T08:38:00;19.33;;;7.17;;
6209;SDS011;3138;52.550;13.148;2023-09-07T08:40:30;13.73;;;6.90;;
6209;SDS011;3138;52.550;13.148;2023-09-07T08:42:58;8.70;;;6.70;;
6209;SDS011;3138;52.550;13.148;2023-09-07T08:45:29;12.60;;;7.37;;
6209;SDS011;3138;52.550;13.148;2023-09-07T08:47:58;10.97;;;6.77;;
6209;SDS011;3138;52.550;13.148;2023-09-07T08:50:28;14.03;;;6.60;;
6209;SDS011;3138;52.550;13.148;2023-09-07T08:52:56;13.83;;;6.13;;
6209;SDS011;3138;52.550;13.148;2023-09-07T08:55:24;12.30;;;7.00;;
6209;SDS011;3138;52.550;13.148;2023-09-07T08:57:52;8.90;;;5.80;;
6209;SDS011;3138;52.550;13.148;2023-09-07T09:00:19;16.93;;;6.30;;
6209;SDS011;3138;52.550;13.148;2023-09-07T09:02:46;10.77;;;6.13;;
6209;SDS011;3138;52.550;13.148;2023-09-07T09:05:14;30.13;;;6.93;;
6209;SDS011;3138;52.550;13.148;2023-09-07T09:07:43;8.87;;;6.00;;
6209;SDS011;3138;52.550;13.148;2023-09-07T09:10:10;11.10;;;6.53;;
6209;SDS011;3138;52.550;13.148;2023-09-07T09:12:44;8.83;;;5.30;;
6209;SDS011;3138;52.550;13.148;2023-09-07T09:15:12;9.03;;;6.33;;
6209;SDS011;3138;52.550;13.148;2023-09-07T09:17:38;20.40;;;6.47;;
6209;SDS011;3138;52.550;13.148;2023-09-07T09:20:06;9.53;;;5.47;;
6209;SDS011;3138;52.550;13.148;2023-09-07T09:22:49;12.97;;;7.37;;
6209;SDS011;3138;52.550;13.148;2023-09-07T09:25:17;13.40;;;6.03;;
6209;SDS011;3138;52.550;13.148;2023-09-07T09:27:44;7.47;;;4.83;;
6209;SDS011;3138;52.550;13.148;2023-09-07T09:30:12;7.90;;;5.70;;
6209;SDS011;3138;52.550;13.148;2023-09-07T09:32:41;26.10;;;6.47;;
6209;SDS011;3138;52.550;13.148;2023-09-07T09:35:08;9.50;;;5.73;;
6209;SDS011;3138;52.550;13.148;2023-09-07T09:37:44;8.53;;;5.40;;
6209;SDS011;3138;52.550;13.148;2023-09-07T09:40:12;17.33;;;5.87;;
6209;SDS011;3138;52.550;13.148;2023-09-07T09:42:40;15.70;;;6.17;;
6209;SDS011;3138;52.550;13.148;2023-09-07T09:45:09;15.83;;;6.27;;
6209;SDS011;3138;52.550;13.148;2023-09-07T09:47:38;17.27;;;6.87;;
6209;SDS011;3138;52.550;13.148;2023-09-07T09:50:06;9.40;;;6.10;;
6209;SDS011;3138;52.550;13.148;2023-09-07T09:52:35;16.23;;;6.23;;
6209;SDS011;3138;52.550;13.148;2023-09-07T09:55:04;13.97;;;5.00;;
6209;SDS011;3138;52.550;13.148;2023-09-07T09:57:33;11.37;;;5.47;;
6209;SDS011;3138;52.550;13.148;2023-09-07T10:00:01;13.50;;;6.10;;
6209;SDS011;3138;52.550;13.148;2023-09-07T10:02:44;8.40;;;7.00;;
6209;SDS011;3138;52.550;13.148;2023-09-07T10:05:14;13.67;;;6.10;;
6209;SDS011;3138;52.550;13.148;2023-09-07T10:07:42;7.40;;;6.60;;
6209;SDS011;3138;52.550;13.148;2023-09-07T10:10:11;30.77;;;8.80;;
6209;SDS011;3138;52.550;13.148;2023-09-07T10:12:40;7.13;;;5.63;;
6209;SDS011;3138;52.550;13.148;2023-09-07T10:15:19;18.30;;;6.70;;
6209;SDS011;3138;52.550;13.148;2023-09-07T10:17:49;12.10;;;7.07;;
6209;SDS011;3138;52.550;13.148;2023-09-07T10:20:18;12.57;;;6.80;;
6209;SDS011;3138;52.550;13.148;2023-09-07T10:22:48;18.60;;;7.77;;
6209;SDS011;3138;52.550;13.148;2023-09-07T10:25:20;8.63;;;5.90;;
6209;SDS011;3138;52.550;13.148;2023-09-07T10:27:48;12.50;;;6.07;;
6209;SDS011;3138;52.550;13.148;2023-09-07T10:30:15;8.73;;;6.60;;
6209;SDS011;3138;52.550;13.148;2023-09-07T10:32:44;8.23;;;6.30;;
6209;SDS011;3138;52.550;13.148;2023-09-07T10:35:13;11.73;;;6.83;;
6209;SDS011;3138;52.550;13.148;2023-09-07T10:37:41;14.53;;;6.80;;
6209;SDS011;3138;52.550;13.148;2023-09-07T10:40:10;8.40;;;5.53;;
6209;SDS011;3138;52.550;13.148;2023-09-07T10:42:42;5.73;;;4.90;;
6209;SDS011;3138;52.550;13.148;2023-09-07T10:45:09;8.00;;;5.47;;
6209;SDS011;3138;52.550;13.148;2023-09-07T10:47:40;8.67;;;5.60;;
6209;SDS011;3138;52.550;13.148;2023-09-07T10:50:08;8.90;;;5.60;;
6209;SDS011;3138;52.550;13.148;2023-09-07T10:52:37;11.27;;;5.80;;
6209;SDS011;3138;52.550;13.148;2023-09-07T10:55:05;12.73;;;6.00;;
6209;SDS011;3138;52.550;13.148;2023-09-07T10:57:32;20.37;;;5.80;;
6209;SDS011;3138;52.550;13.148;2023-09-07T11:00:10;7.17;;;4.97;;
6209;SDS011;3138;52.550;13.148;2023-09-07T11:02:39;17.23;;;6.33;;
6209;SDS011;3138;52.550;13.148;2023-09-07T11:05:06;17.87;;;5.27;;
6209;SDS011;3138;52.550;13.148;2023-09-07T11:07:35;6.33;;;5.70;;
6209;SDS011;3138;52.550;13.148;2023-09-07T11:10:05;6.73;;;5.10;;
6209;SDS011;3138;52.550;13.148;2023-09-07T11:12:36;8.60;;;5.60;;
6209;SDS011;3138;52.550;13.148;2023-09-07T11:15:07;8.47;;;4.70;;
6209;SDS011;3138;52.550;13.148;2023-09-07T11:17:36;7.60;;;4.50;;
6209;SDS011;3138;52.550;13.148;2023-09-07T11:20:03;9.20;;;5.63;;
6209;SDS011;3138;52.550;13.148;2023-09-07T11:22:32;7.13;;;5.20;;
6209;SDS011;3138;52.550;13.148;2023-09-07T11:25:00;12.73;;;6.00;;
6209;SDS011;3138;52.550;13.148;2023-09-07T11:27:28;10.10;;;5.03;;
6209;SDS011;3138;52.550;13.148;2023-09-07T11:29:56;11.70;;;6.03;;
6209;SDS011;3138;52.550;13.148;2023-09-07T11:32:24;7.47;;;4.40;;
6209;SDS011;3138;52.550;13.148;2023-09-07T11:35:00;19.67;;;5.37;;
6209;SDS011;3138;52.550;13.148;2023-09-07T11:37:26;11.70;;;5.27;;
6209;SDS011;3138;52.550;13.148;2023-09-07T11:39:53;7.43;;;5.93;;
6209;SDS011;3138;52.550;13.148;2023-09-07T11:42:20;16.37;;;6.77;;
6209;SDS011;3138;52.550;13.148;2023-09-07T11:44:47;12.13;;;4.97;;
6209;SDS011;3138;52.550;13.148;2023-09-07T11:47:14;10.27;;;5.73;;
6209;SDS011;3138;52.550;13.148;2023-09-07T11:49:42;7.07;;;4.83;;
6209;SDS011;3138;52.550;13.148;2023-09-07T11:52:09;5.13;;;4.63;;
6209;SDS011;3138;52.550;13.148;2023-09-07T11:54:36;9.50;;;5.60;;
6209;SDS011;3138;52.550;13.148;2023-09-07T11:57:03;18.83;;;4.97;;
6209;SDS011;3138;52.550;13.148;2023-09-07T11:59:30;5.60;;;5.00;;
6209;SDS011;3138;52.550;13.148;2023-09-07T12:01:57;8.17;;;4.40;;
6209;SDS011;3138;52.550;13.148;2023-09-07T12:04:24;13.07;;;4.97;;
6209;SDS011;3138;52.550;13.148;2023-09-07T12:06:52;15.30;;;5.03;;
6209;SDS011;3138;52.550;13.148;2023-09-07T12:09:19;5.37;;;4.87;;
6209;SDS011;3138;52.550;13.148;2023-09-07T12:11:46;6.23;;;5.00;;
6209;SDS011;3138;52.550;13.148;2023-09-07T12:14:13;7.03;;;4.77;;
6209;SDS011;3138;52.550;13.148;2023-09-07T12:16:40;5.07;;;4.43;;
6209;SDS011;3138;52.550;13.148;2023-09-07T12:19:06;8.03;;;5.53;;
6209;SDS011;3138;52.550;13.148;2023-09-07T12:21:34;7.30;;;4.43;;
6209;SDS011;3138;52.550;13.148;2023-09-07T12:24:01;6.17;;;3.67;;
6209;SDS011;3138;52.550;13.148;2023-09-07T12:26:28;5.37;;;4.87;;
6209;SDS011;3138;52.550;13.148;2023-09-07T12:28:54;4.33;;;3.53;;
6209;SDS011;3138;52.550;13.148;2023-09-07T12:31:21;4.00;;;3.53;;
6209;SDS011;3138;52.550;13.148;2023-09-07T12:33:48;5.00;;;3.97;;
6209;SDS011;3138;52.550;13.148;2023-09-07T12:36:15;5.97;;;3.33;;
6209;SDS011;3138;52.550;13.148;2023-09-07T12:38:42;8.20;;;3.90;;
6209;SDS011;3138;52.550;13.148;2023-09-07T12:41:10;10.50;;;5.13;;
6209;SDS011;3138;52.550;13.148;2023-09-07T12:43:37;4.63;;;4.20;;
6209;SDS011;3138;52.550;13.148;2023-09-07T12:46:04;8.30;;;4.20;;
6209;SDS011;3138;52.550;13.148;2023-09-07T12:48:30;6.10;;;4.87;;
6209;SDS011;3138;52.550;13.148;2023-09-07T12:50:57;7.93;;;4.70;;
6209;SDS011;3138;52.550;13.148;2023-09-07T12:53:24;8.20;;;4.50;;
6209;SDS011;3138;52.550;13.148;2023-09-07T12:55:51;12.93;;;5.33;;
6209;SDS011;3138;52.550;13.148;2023-09-07T12:58:20;4.93;;;4.53;;
6209;SDS011;3138;52.550;13.148;2023-09-07T13:00:47;8.10;;;4.57;;
6209;SDS011;3138;52.550;13.148;2023-09-07T13:03:16;6.57;;;4.73;;
6209;SDS011;3138;52.550;13.148;2023-09-07T13:05:43;6.40;;;4.47;;
6209;SDS011;3138;52.550;13.148;2023-09-07T13:08:10;10.33;;;4.73;;
6209;SDS011;3138;52.550;13.148;2023-09-07T13:10:37;13.53;;;4.80;;
6209;SDS011;3138;52.550;13.148;2023-09-07T13:13:04;7.43;;;3.97;;
6209;SDS011;3138;52.550;13.148;2023-09-07T13:15:33;17.70;;;5.50;;
6209;SDS011;3138;52.550;13.148;2023-09-07T13:18:00;5.07;;;3.60;;
6209;SDS011;3138;52.550;13.148;2023-09-07T13:20:27;6.10;;;4.53;;
6209;SDS011;3138;52.550;13.148;2023-09-07T13:22:53;5.10;;;4.60;;
6209;SDS011;3138;52.550;13.148;2023-09-07T13:25:20;18.47;;;4.30;;
6209;SDS011;3138;52.550;13.148;2023-09-07T13:27:47;8.87;;;4.87;;
6209;SDS011;3138;52.550;13.148;2023-09-07T13:30:14;7.40;;;5.23;;
6209;SDS011;3138;52.550;13.148;2023-09-07T13:32:42;8.73;;;4.80;;
6209;SDS011;3138;52.550;13.148;2023-09-07T13:35:11;7.93;;;5.20;;
6209;SDS011;3138;52.550;13.148;2023-09-07T13:37:38;7.40;;;5.33;;
6209;SDS011;3138;52.550;13.148;2023-09-07T13:40:06;5.93;;;4.53;;
6209;SDS011;3138;52.550;13.148;2023-09-07T13:42:33;10.00;;;4.80;;
6209;SDS011;3138;52.550;13.148;2023-09-07T13:45:00;9.50;;;4.83;;
6209;SDS011;3138;52.550;13.148;2023-09-07T13:47:27;10.93;;;4.90;;
6209;SDS011;3138;52.550;13.148;2023-09-07T13:49:55;9.93;;;5.00;;
6209;SDS011;3138;52.550;13.148;2023-09-07T13:52:22;7.50;;;4.80;;
6209;SDS011;3138;52.550;13.148;2023-09-07T13:54:52;7.17;;;4.67;;
6209;SDS011;3138;52.550;13.148;2023-09-07T13:57:18;6.00;;;4.93;;
6209;SDS011;3138;52.550;13.148;2023-09-07T13:59:45;5.00;;;4.40;;
6209;SDS011;3138;52.550;13.148;2023-09-07T14:02:12;11.13;;;4.63;;
6209;SDS011;3138;52.550;13.148;2023-09-07T14:04:39;7.97;;;5.10;;
6209;SDS011;3138;52.550;13.148;2023-09-07T14:07:07;7.17;;;5.30;;
6209;SDS011;3138;52.550;13.148;2023-09-07T14:09:34;6.40;;;4.90;;
6209;SDS011;3138;52.550;13.148;2023-09-07T14:12:01;11.50;;;5.30;;
6209;SDS011;3138;52.550;13.148;2023-09-07T14:14:28;8.40;;;5.03;;
6209;SDS011;3138;52.550;13.148;2023-09-07T14:16:55;12.30;;;5.20;;
6209;SDS011;3138;52.550;13.148;2023-09-07T14:19:23;7.13;;;4.20;;
6209;SDS011;3138;52.550;13.148;2023-09-07T14:21:52;9.70;;;4.40;;
6209;SDS011;3138;52.550;13.148;2023-09-07T14:24:20;10.33;;;5.00;;
6209;SDS011;3138;52.550;13.148;2023-09-07T14:26:47;7.87;;;5.10;;
6209;SDS011;3138;52.550;13.148;2023-09-07T14:29:14;14.80;;;5.47;;
6209;SDS011;3138;52.550;13.148;2023-09-07T14:31:41;21.70;;;5.90;;
6209;SDS011;3138;52.550;13.148;2023-09-07T14:34:08;6.77;;;4.80;;
6209;SDS011;3138;52.550;13.148;2023-09-07T14:36:36;7.47;;;5.13;;
6209;SDS011;3138;52.550;13.148;2023-09-07T14:39:02;5.67;;;4.37;;
6209;SDS011;3138;52.550;13.148;2023-09-07T14:41:33;8.30;;;4.80;;
6209;SDS011;3138;52.550;13.148;2023-09-07T14:44:00;5.40;;;4.90;;
6209;SDS011;3138;52.550;13.148;2023-09-07T14:46:27;9.50;;;4.77;;
6209;SDS011;3138;52.550;13.148;2023-09-07T14:48:54;18.03;;;5.93;;
6209;SDS011;3138;52.550;13.148;2023-09-07T14:51:22;5.97;;;5.27;;